Time;durP1;ratioP1;P1;durP2;ratioP2;P2;SDS_P1;SDS_P2;PMS_P1;PMS_P2;Temp;Humidity;BMP_temperature;BMP_pressure;BME280_temperature;BME280_humidity;BME280_pressure;Samples;Min_cycle;Max_cycle;Signal;HPM_P1;HPM_P2
2022/03/02 00:01:35;;;;;;;6.80;5.57;;;-0.40;99.90;;;;;;470410;252;27469;-75
2022/03/02 00:03:36;;;;;;;10.10;6.10;;;-0.40;99.90;;;;;;470389;252;27543;-76
2022/03/02 00:05:37;;;;;;;12.37;5.90;;;-0.40;99.90;;;;;;470368;253;27491;-76
2022/03/02 00:07:39;;;;;;;7.55;5.60;;;-0.40;99.90;;;;;;470386;252;27639;-76
2022/03/02 00:09:40;;;;;;;7.00;5.28;;;-0.50;99.90;;;;;;470367;249;27458;-76
2022/03/02 00:11:41;;;;;;;10.23;5.78;;;-0.50;99.90;;;;;;470423;252;27905;-75
2022/03/02 00:13:42;;;;;;;9.70;6.12;;;-0.60;99.90;;;;;;470411;252;27967;-75
2022/03/02 00:15:44;;;;;;;10.20;6.60;;;-0.50;99.90;;;;;;470402;253;27440;-75
2022/03/02 00:17:45;;;;;;;7.25;5.65;;;-0.50;99.90;;;;;;470392;252;27469;-75
2022/03/02 00:19:46;;;;;;;7.47;5.55;;;-0.40;99.90;;;;;;470403;249;27589;-76
2022/03/02 00:21:47;;;;;;;10.90;6.28;;;-0.40;99.90;;;;;;470459;252;27419;-76
2022/03/02 00:23:49;;;;;;;7.40;5.60;;;-0.40;99.90;;;;;;470452;252;27481;-75
2022/03/02 00:25:50;;;;;;;8.70;5.93;;;-0.50;99.90;;;;;;470419;253;27426;-76
2022/03/02 00:27:51;;;;;;;12.23;6.78;;;-0.50;99.90;;;;;;470429;252;27601;-75
2022/03/02 00:29:52;;;;;;;9.00;6.25;;;-0.50;99.90;;;;;;470458;251;27986;-75
2022/03/02 00:31:54;;;;;;;10.63;6.53;;;-0.40;99.90;;;;;;470448;252;28017;-75
2022/03/02 00:33:55;;;;;;;7.35;5.30;;;-0.40;99.90;;;;;;470423;252;27466;-76
2022/03/02 00:35:56;;;;;;;9.35;5.47;;;-0.30;99.90;;;;;;470393;253;27438;-75
2022/03/02 00:37:57;;;;;;;7.12;5.35;;;-0.40;99.90;;;;;;470392;249;27543;-75
2022/03/02 00:39:59;;;;;;;7.47;5.37;;;-0.40;99.90;;;;;;470437;252;27549;-76
2022/03/02 00:42:00;;;;;;;7.28;5.70;;;-0.40;99.90;;;;;;470439;252;27499;-76
2022/03/02 00:44:01;;;;;;;9.77;5.55;;;-0.30;99.90;;;;;;470409;252;27550;-76
2022/03/02 00:46:03;;;;;;;8.20;5.80;;;-0.40;99.90;;;;;;470401;252;27443;-76
2022/03/02 00:48:04;;;;;;;7.87;5.78;;;-0.40;99.90;;;;;;470413;252;27948;-76
2022/03/02 00:50:05;;;;;;;7.30;5.25;;;-0.50;99.90;;;;;;470397;253;28030;-75
2022/03/02 00:52:09;;;;;;;9.57;5.95;;;-0.40;99.90;;;;;;470390;252;28974;-76
2022/03/02 00:54:08;;;;;;;7.30;5.43;;;-0.50;99.90;;;;;;470287;253;27537;-76
2022/03/02 00:56:09;;;;;;;8.05;5.47;;;-0.50;99.90;;;;;;470378;249;27426;-75
2022/03/02 00:58:10;;;;;;;9.85;6.10;;;-0.50;99.90;;;;;;470404;252;27489;-75
2022/03/02 01:00:11;;;;;;;8.57;5.25;;;-0.60;99.90;;;;;;470398;253;27503;-75
2022/03/02 01:02:13;;;;;;;9.35;5.80;;;-0.60;99.90;;;;;;470405;249;27428;-75
2022/03/02 01:04:14;;;;;;;9.30;5.62;;;-0.60;99.90;;;;;;470420;252;27557;-75
2022/03/02 01:06:15;;;;;;;7.85;5.80;;;-0.60;99.90;;;;;;470348;253;27463;-76
2022/03/02 01:08:16;;;;;;;6.03;5.10;;;-0.60;99.90;;;;;;470405;252;27909;-76
2022/03/02 01:10:18;;;;;;;7.40;5.43;;;-0.60;99.90;;;;;;470411;253;28048;-75
2022/03/02 01:12:19;;;;;;;7.03;5.30;;;-0.50;99.90;;;;;;470415;253;28979;-76
2022/03/02 01:14:20;;;;;;;8.13;5.50;;;-0.60;99.90;;;;;;470414;252;27474;-76
2022/03/02 01:16:21;;;;;;;7.72;5.72;;;-0.50;99.90;;;;;;470386;248;27549;-75
2022/03/02 01:18:23;;;;;;;7.85;5.10;;;-0.60;99.90;;;;;;470408;252;27560;-75
2022/03/02 01:20:24;;;;;;;7.00;5.30;;;-0.60;99.90;;;;;;470394;253;27440;-76
2022/03/02 01:22:25;;;;;;;8.32;5.65;;;-0.60;99.90;;;;;;470410;252;27474;-76
2022/03/02 01:24:26;;;;;;;6.68;5.12;;;-0.60;99.90;;;;;;470408;252;27555;-76
2022/03/02 01:26:29;;;;;;;7.78;5.80;;;-0.60;99.90;;;;;;470388;253;27426;-76
2022/03/02 01:28:29;;;;;;;8.35;5.47;;;-0.60;99.90;;;;;;470378;249;27991;-75
2022/03/02 01:30:30;;;;;;;8.25;5.50;;;-0.50;99.90;;;;;;470389;253;28792;-76
2022/03/02 01:32:32;;;;;;;9.20;6.00;;;-0.50;99.90;;;;;;470417;253;27902;-76
2022/03/02 01:34:33;;;;;;;9.32;5.65;;;-0.60;99.90;;;;;;470394;252;27466;-76
2022/03/02 01:36:34;;;;;;;9.70;6.57;;;-0.60;99.90;;;;;;470416;253;27414;-76
2022/03/02 01:38:35;;;;;;;7.35;5.12;;;-0.70;99.90;;;;;;470433;252;27465;-75
2022/03/02 01:40:36;;;;;;;8.25;5.68;;;-0.70;99.90;;;;;;470411;252;27477;-75
2022/03/02 01:42:38;;;;;;;8.75;5.80;;;-0.70;99.90;;;;;;470342;253;27538;-76
2022/03/02 01:44:39;;;;;;;6.80;4.90;;;-0.70;99.90;;;;;;470369;252;27457;-76
2022/03/02 01:46:40;;;;;;;8.90;5.30;;;-0.80;99.90;;;;;;470351;252;27423;-76
2022/03/02 01:48:41;;;;;;;5.85;5.05;;;-0.80;99.90;;;;;;470349;252;27931;-75
2022/03/02 01:50:43;;;;;;;7.32;5.40;;;-0.80;99.90;;;;;;470348;252;27905;-75
2022/03/02 01:52:44;;;;;;;5.28;4.65;;;-0.80;99.90;;;;;;470361;252;29152;-75
2022/03/02 01:54:46;;;;;;;5.47;4.85;;;-0.80;99.90;;;;;;470427;252;27474;-76
2022/03/02 01:56:46;;;;;;;6.37;5.25;;;-0.90;99.90;;;;;;470351;252;27504;-75
2022/03/02 01:58:48;;;;;;;6.47;4.50;;;-0.90;99.90;;;;;;470371;252;27457;-76
2022/03/02 02:00:49;;;;;;;12.75;5.45;;;-0.90;99.90;;;;;;470336;253;27439;-76
2022/03/02 02:02:50;;;;;;;6.70;4.50;;;-1.00;99.90;;;;;;470399;248;27465;-75
2022/03/02 02:04:53;;;;;;;6.12;5.03;;;-1.00;99.90;;;;;;470412;252;27593;-76
2022/03/02 02:06:53;;;;;;;8.95;5.22;;;-1.20;99.90;;;;;;470299;253;27407;-75
2022/03/02 02:08:54;;;;;;;7.35;5.43;;;-1.30;99.90;;;;;;470373;252;27948;-75
2022/03/02 02:10:58;;;;;;;7.55;4.75;;;-1.40;99.90;;;;;;470427;251;28759;-76
2022/03/02 02:12:59;;;;;;;9.13;6.00;;;-1.40;99.90;;;;;;470415;253;27484;-75
2022/03/02 02:15:01;;;;;;;8.80;5.85;;;-1.50;99.90;;;;;;470408;252;27434;-75
2022/03/02 02:17:02;;;;;;;12.05;6.97;;;-1.50;99.90;;;;;;470388;252;27535;-76
2022/03/02 02:19:03;;;;;;;9.23;6.35;;;-1.50;99.90;;;;;;470416;253;27503;-76
2022/03/02 02:21:04;;;;;;;8.50;6.10;;;-1.40;99.90;;;;;;470405;252;27478;-75
2022/03/02 02:23:06;;;;;;;9.65;6.68;;;-1.40;99.90;;;;;;470427;252;27798;-76
2022/03/02 02:25:07;;;;;;;7.93;5.62;;;-1.40;99.90;;;;;;470401;253;29072;-75
2022/03/02 02:27:08;;;;;;;10.52;6.47;;;-1.30;99.90;;;;;;470383;252;27545;-75
2022/03/02 02:29:10;;;;;;;6.25;5.15;;;-1.30;99.90;;;;;;470394;252;27435;-75
2022/03/02 02:31:11;;;;;;;8.77;6.22;;;-1.30;99.90;;;;;;470421;252;27454;-75
2022/03/02 02:33:12;;;;;;;7.12;5.60;;;-1.30;99.90;;;;;;470393;253;27455;-76
2022/03/02 02:35:13;;;;;;;8.82;6.25;;;-1.20;99.90;;;;;;470388;252;27502;-75
2022/03/02 02:37:14;;;;;;;8.35;6.65;;;-1.30;99.90;;;;;;470401;252;27493;-75
2022/03/02 02:39:16;;;;;;;9.15;5.32;;;-1.40;99.90;;;;;;470382;252;27427;-75
2022/03/02 02:41:18;;;;;;;6.25;5.40;;;-1.40;99.90;;;;;;470394;252;27994;-75
2022/03/02 02:43:18;;;;;;;7.45;5.50;;;-1.40;99.90;;;;;;470350;252;28086;-75
2022/03/02 02:45:20;;;;;;;6.90;5.07;;;-1.40;99.90;;;;;;470408;252;27885;-76
2022/03/02 02:47:21;;;;;;;8.30;6.05;;;-1.40;99.90;;;;;;470386;249;27501;-76
2022/03/02 02:49:22;;;;;;;6.82;5.20;;;-1.40;99.90;;;;;;470396;252;27459;-76
2022/03/02 02:51:23;;;;;;;7.60;5.57;;;-1.40;99.90;;;;;;470393;253;27427;-76
2022/03/02 02:53:24;;;;;;;5.82;5.22;;;-1.40;99.90;;;;;;470407;252;27477;-76
2022/03/02 02:55:26;;;;;;;6.97;5.10;;;-1.40;99.90;;;;;;470397;252;27422;-75
2022/03/02 02:57:27;;;;;;;7.22;4.85;;;-1.40;99.90;;;;;;470378;253;27497;-76
2022/03/02 02:59:28;;;;;;;7.20;5.45;;;-1.50;99.90;;;;;;470406;252;27431;-75
2022/03/02 03:01:30;;;;;;;6.65;5.10;;;-1.50;99.90;;;;;;470407;252;27899;-76
2022/03/02 03:03:31;;;;;;;7.00;5.60;;;-1.60;99.90;;;;;;470413;252;28072;-76
2022/03/02 03:05:32;;;;;;;7.30;5.40;;;-1.60;99.90;;;;;;470424;252;27897;-75
2022/03/02 03:07:33;;;;;;;6.22;4.95;;;-1.60;99.90;;;;;;470390;253;27545;-76
2022/03/02 03:09:35;;;;;;;6.53;4.95;;;-1.60;99.90;;;;;;470401;253;27466;-75
2022/03/02 03:11:36;;;;;;;6.70;4.90;;;-1.60;99.90;;;;;;470417;253;27457;-76
2022/03/02 03:13:37;;;;;;;5.72;4.50;;;-1.60;99.90;;;;;;470392;248;27596;-76
2022/03/02 03:15:38;;;;;;;6.78;5.22;;;-1.60;99.90;;;;;;470414;252;27523;-75
2022/03/02 03:17:40;;;;;;;10.63;5.70;;;-1.60;99.90;;;;;;470379;252;27544;-75
2022/03/02 03:19:41;;;;;;;7.10;6.00;;;-1.60;99.90;;;;;;470365;253;27439;-75
2022/03/02 03:21:42;;;;;;;8.45;5.18;;;-1.60;99.90;;;;;;470393;252;27943;-75
2022/03/02 03:23:43;;;;;;;6.25;4.72;;;-1.60;99.90;;;;;;470401;252;28047;-77
2022/03/02 03:25:45;;;;;;;10.30;5.97;;;-1.50;99.90;;;;;;470434;253;27469;-76
2022/03/02 03:27:46;;;;;;;8.65;5.20;;;-1.50;99.90;;;;;;470406;252;27485;-76
2022/03/02 03:29:47;;;;;;;9.07;5.53;;;-1.50;99.90;;;;;;470391;253;27537;-75
2022/03/02 03:31:48;;;;;;;7.85;5.55;;;-1.50;99.90;;;;;;470395;253;27482;-76
2022/03/02 03:33:50;;;;;;;8.50;5.45;;;-1.50;99.90;;;;;;470407;252;27797;-76
2022/03/02 03:35:51;;;;;;;7.95;4.87;;;-1.50;99.90;;;;;;470406;253;27518;-76
2022/03/02 03:37:52;;;;;;;6.97;4.82;;;-1.50;99.90;;;;;;470370;253;27481;-75
2022/03/02 03:39:53;;;;;;;8.75;5.62;;;-1.50;99.90;;;;;;470346;253;27987;-74
2022/03/02 03:41:55;;;;;;;5.72;4.95;;;-1.50;99.90;;;;;;470346;252;27970;-75
2022/03/02 03:43:56;;;;;;;7.32;5.18;;;-1.60;99.90;;;;;;470349;252;29118;-76
2022/03/02 03:45:57;;;;;;;8.63;5.93;;;-1.60;99.90;;;;;;470375;253;27438;-76
2022/03/02 03:47:58;;;;;;;7.75;5.57;;;-1.60;99.90;;;;;;470381;253;27467;-76
2022/03/02 03:50:00;;;;;;;5.97;4.53;;;-1.70;99.90;;;;;;470404;252;27498;-76
2022/03/02 03:52:01;;;;;;;5.95;5.30;;;-1.70;99.90;;;;;;470392;253;27482;-76
2022/03/02 03:54:02;;;;;;;6.10;4.82;;;-1.70;99.90;;;;;;470422;252;27510;-76
2022/03/02 03:56:03;;;;;;;9.45;5.87;;;-1.70;99.90;;;;;;470411;253;27435;-75
2022/03/02 03:58:05;;;;;;;8.63;5.87;;;-1.80;99.90;;;;;;470415;252;27471;-75
2022/03/02 04:00:06;;;;;;;6.53;5.07;;;-1.80;99.90;;;;;;470393;252;27898;-75
2022/03/02 04:02:07;;;;;;;9.27;5.37;;;-1.70;99.90;;;;;;470383;253;29044;-76
2022/03/02 04:04:08;;;;;;;7.00;5.22;;;-1.70;99.90;;;;;;470426;252;28005;-76
2022/03/02 04:06:10;;;;;;;5.55;5.05;;;-1.80;99.90;;;;;;470421;253;27333;-75
2022/03/02 04:08:11;;;;;;;7.85;5.25;;;-1.80;99.90;;;;;;470385;252;27569;-75
2022/03/02 04:10:13;;;;;;;6.05;5.20;;;-1.80;99.90;;;;;;470405;252;27422;-75
2022/03/02 04:12:14;;;;;;;6.28;5.20;;;-1.80;99.90;;;;;;470397;252;27489;-75
2022/03/02 04:14:15;;;;;;;7.50;5.95;;;-1.80;99.90;;;;;;470423;253;27356;-76
2022/03/02 04:16:16;;;;;;;6.55;5.37;;;-1.80;99.90;;;;;;470404;252;27477;-75
2022/03/02 04:18:17;;;;;;;7.90;5.20;;;-1.80;99.90;;;;;;470396;253;27427;-75
2022/03/02 04:20:18;;;;;;;6.05;5.45;;;-1.80;99.90;;;;;;470404;252;28013;-75
2022/03/02 04:22:20;;;;;;;7.32;5.05;;;-1.80;99.90;;;;;;470405;253;27981;-75
2022/03/02 04:24:21;;;;;;;7.05;5.25;;;-1.80;99.90;;;;;;470424;252;27462;-75
2022/03/02 04:26:22;;;;;;;8.27;5.50;;;-1.80;99.90;;;;;;470386;252;27431;-75
2022/03/02 04:28:23;;;;;;;7.28;4.95;;;-1.80;99.90;;;;;;470378;252;27470;-76
2022/03/02 04:30:27;;;;;;;9.25;5.70;;;-1.80;99.90;;;;;;470388;252;27545;-75
2022/03/02 04:32:26;;;;;;;7.10;5.32;;;-1.70;99.90;;;;;;470251;253;27553;-75
2022/03/02 04:34:28;;;;;;;8.20;5.22;;;-1.80;99.90;;;;;;470421;252;27482;-75
2022/03/02 04:36:28;;;;;;;7.47;5.45;;;-1.80;99.90;;;;;;470415;252;27435;-75
2022/03/02 04:38:30;;;;;;;8.35;5.05;;;-1.70;99.90;;;;;;470403;253;27470;-76
2022/03/02 04:40:31;;;;;;;8.20;6.35;;;-1.70;99.90;;;;;;470404;252;27894;-76
2022/03/02 04:42:32;;;;;;;11.45;6.10;;;-1.70;99.90;;;;;;470392;252;27992;-75
2022/03/02 04:44:33;;;;;;;8.70;5.90;;;-1.70;99.90;;;;;;470403;252;27555;-75
2022/03/02 04:46:35;;;;;;;10.50;5.80;;;-1.70;99.90;;;;;;470411;253;27469;-76
2022/03/02 04:48:36;;;;;;;10.20;7.18;;;-1.50;99.90;;;;;;470386;252;27471;-75
2022/03/02 04:50:38;;;;;;;14.60;6.65;;;-1.40;99.90;;;;;;470395;253;27509;-76
2022/03/02 04:52:38;;;;;;;9.02;6.97;;;-1.40;99.90;;;;;;470394;252;27537;-75
2022/03/02 04:56:59;;;;;;;11.02;7.15;;;-1.20;99.90;;;;;;470364;253;27885;-76
2022/03/02 04:59:04;;;;;;;13.40;7.10;;;-1.30;99.90;;;;;;470368;252;27997;-75
2022/03/02 05:01:03;;;;;;;8.75;6.93;;;-1.40;99.90;;;;;;469968;253;27466;-75
2022/03/02 05:03:03;;;;;;;11.23;7.75;;;-1.40;99.90;;;;;;470417;252;27422;-75
2022/03/02 05:05:04;;;;;;;9.02;7.22;;;-1.50;99.90;;;;;;470406;253;27377;-76
2022/03/02 05:07:06;;;;;;;6.68;5.97;;;-1.50;99.90;;;;;;470408;253;27537;-75
2022/03/02 05:09:07;;;;;;;10.20;6.95;;;-1.50;99.90;;;;;;470387;252;27462;-75
2022/03/02 05:11:08;;;;;;;9.18;7.00;;;-1.50;99.90;;;;;;470404;252;27529;-75
2022/03/02 05:13:09;;;;;;;9.02;6.30;;;-1.50;99.90;;;;;;470425;252;27968;-75
2022/03/02 05:15:11;;;;;;;8.05;6.53;;;-1.50;99.90;;;;;;470388;253;28060;-75
2022/03/02 05:17:12;;;;;;;6.40;5.80;;;-1.50;99.90;;;;;;470403;253;28025;-75
2022/03/02 05:19:13;;;;;;;7.75;6.07;;;-1.50;99.90;;;;;;470365;252;27455;-76
2022/03/02 05:21:14;;;;;;;7.70;5.57;;;-1.50;99.90;;;;;;470417;252;27482;-75
2022/03/02 05:23:16;;;;;;;9.40;6.12;;;-1.60;99.90;;;;;;470409;252;27541;-75
2022/03/02 05:25:17;;;;;;;7.65;5.57;;;-1.60;99.90;;;;;;470410;252;27549;-76
2022/03/02 05:27:18;;;;;;;7.18;5.93;;;-1.60;99.90;;;;;;470393;253;27545;-75
2022/03/02 05:29:19;;;;;;;8.27;6.50;;;-1.60;99.90;;;;;;470380;253;27461;-75
2022/03/02 05:31:23;;;;;;;8.40;5.55;;;-1.60;99.90;;;;;;470389;252;27545;-76
2022/03/02 05:33:22;;;;;;;7.90;5.62;;;-1.50;99.90;;;;;;470233;253;27925;-76
2022/03/02 05:35:23;;;;;;;8.50;6.12;;;-1.50;99.90;;;;;;470408;252;27975;-75
2022/03/02 05:37:24;;;;;;;7.95;6.30;;;-1.50;99.90;;;;;;470415;253;27884;-75
2022/03/02 05:39:26;;;;;;;8.25;5.82;;;-1.40;99.90;;;;;;470418;252;27339;-75
2022/03/02 05:41:27;;;;;;;6.32;5.12;;;-1.40;99.90;;;;;;470444;252;27566;-75
2022/03/02 05:43:28;;;;;;;6.75;5.37;;;-1.40;99.90;;;;;;470439;252;27311;-76
2022/03/02 05:45:29;;;;;;;7.80;5.75;;;-1.40;99.90;;;;;;470445;253;27467;-76
2022/03/02 05:47:31;;;;;;;6.00;4.93;;;-1.40;99.90;;;;;;470430;248;27435;-76
2022/03/02 05:49:32;;;;;;;6.80;5.28;;;-1.40;99.90;;;;;;470422;253;27543;-76
2022/03/02 05:51:33;;;;;;;6.65;5.62;;;-1.40;99.90;;;;;;470425;252;27454;-76
2022/03/02 05:53:34;;;;;;;8.80;5.30;;;-1.40;99.90;;;;;;470430;253;27998;-75
2022/03/02 05:55:36;;;;;;;6.85;4.97;;;-1.40;99.90;;;;;;470400;253;29155;-75
2022/03/02 05:57:37;;;;;;;6.25;5.00;;;-1.40;99.90;;;;;;470412;249;27518;-76
2022/03/02 05:59:38;;;;;;;6.07;5.47;;;-1.30;99.90;;;;;;470395;252;27461;-75
2022/03/02 06:01:39;;;;;;;5.80;4.97;;;-1.30;99.90;;;;;;470423;252;27459;-75
2022/03/02 06:03:41;;;;;;;6.93;4.97;;;-1.30;99.90;;;;;;470396;253;27494;-75
2022/03/02 06:05:42;;;;;;;6.35;5.65;;;-1.30;99.90;;;;;;470421;252;27486;-75
2022/03/02 06:07:43;;;;;;;6.35;5.03;;;-1.30;99.90;;;;;;470419;252;27426;-73
2022/03/02 06:09:44;;;;;;;8.98;5.28;;;-1.50;99.90;;;;;;470438;253;27463;-73
2022/03/02 06:11:46;;;;;;;7.07;5.80;;;-1.60;99.90;;;;;;470477;252;27474;-73
2022/03/02 06:13:47;;;;;;;7.65;5.70;;;-1.70;99.90;;;;;;470405;253;27877;-71
2022/03/02 06:15:48;;;;;;;7.43;5.62;;;-1.70;99.90;;;;;;470476;252;27945;-73
2022/03/02 06:17:50;;;;;;;8.05;5.95;;;-1.70;99.90;;;;;;470448;252;28682;-73
2022/03/02 06:19:51;;;;;;;8.73;5.78;;;-1.70;99.90;;;;;;470478;252;27315;-73
2022/03/02 06:21:52;;;;;;;7.90;5.70;;;-1.60;99.90;;;;;;470460;252;27495;-73
2022/03/02 06:23:53;;;;;;;7.12;5.20;;;-1.50;99.90;;;;;;470462;252;27434;-73
2022/03/02 06:25:55;;;;;;;7.60;6.10;;;-1.40;99.90;;;;;;470448;252;27467;-73
2022/03/02 06:27:56;;;;;;;7.50;5.62;;;-1.30;99.90;;;;;;470411;249;27459;-73
2022/03/02 06:29:57;;;;;;;7.80;5.25;;;-1.30;99.90;;;;;;470409;252;27427;-75
2022/03/02 06:31:58;;;;;;;8.15;4.72;;;-1.20;99.90;;;;;;470404;252;27459;-75
2022/03/02 06:34:00;;;;;;;7.35;5.65;;;-1.20;99.90;;;;;;470414;252;27890;-75
2022/03/02 06:36:01;;;;;;;10.63;5.70;;;-1.20;99.90;;;;;;470391;253;28043;-76
2022/03/02 06:38:02;;;;;;;8.13;6.18;;;-1.30;99.90;;;;;;470416;253;27483;-76
2022/03/02 06:40:03;;;;;;;8.70;6.40;;;-1.30;99.90;;;;;;470417;253;27502;-75
2022/03/02 06:42:05;;;;;;;11.77;7.35;;;-1.20;99.90;;;;;;470422;252;27569;-75
2022/03/02 06:44:06;;;;;;;9.48;6.15;;;-1.20;99.90;;;;;;470383;252;27557;-76
2022/03/02 06:46:08;;;;;;;8.80;6.32;;;-1.00;99.90;;;;;;470379;252;27557;-75
2022/03/02 06:48:08;;;;;;;7.20;6.35;;;-1.00;99.90;;;;;;470399;253;27558;-76
2022/03/02 06:50:10;;;;;;;9.77;6.55;;;-0.90;99.90;;;;;;470425;248;27527;-76
2022/03/02 06:52:11;;;;;;;7.43;6.30;;;-0.80;99.90;;;;;;470389;252;27942;-75
2022/03/02 06:54:12;;;;;;;10.60;6.45;;;-0.70;99.90;;;;;;470364;253;27885;-75
2022/03/02 06:56:13;;;;;;;9.68;6.57;;;-0.60;99.90;;;;;;470370;252;27496;-76
2022/03/02 06:58:15;;;;;;;9.40;6.00;;;-0.60;99.90;;;;;;470368;252;27455;-76
2022/03/02 07:00:18;;;;;;;8.27;6.28;;;-0.60;99.90;;;;;;470421;253;27527;-75
2022/03/02 07:02:20;;;;;;;8.20;6.57;;;-0.60;99.90;;;;;;470395;252;27543;-75
2022/03/02 07:04:21;;;;;;;9.88;7.00;;;-0.60;99.90;;;;;;470425;252;27544;-75
2022/03/02 07:06:22;;;;;;;8.00;6.97;;;-0.60;99.90;;;;;;470423;253;27507;-76
2022/03/02 07:08:24;;;;;;;10.18;7.05;;;-0.60;99.90;;;;;;470411;252;27477;-75
2022/03/02 07:10:25;;;;;;;7.28;6.25;;;-0.60;99.90;;;;;;470433;253;27987;-75
2022/03/02 07:12:26;;;;;;;8.48;6.95;;;-0.60;99.90;;;;;;470395;252;28013;-74
2022/03/02 07:14:27;;;;;;;10.10;7.32;;;-0.60;99.90;;;;;;470402;252;27463;-76
2022/03/02 07:16:29;;;;;;;9.25;7.03;;;-0.60;99.90;;;;;;470409;252;27454;-76
2022/03/02 07:18:30;;;;;;;8.68;6.78;;;-0.50;99.90;;;;;;470399;253;27462;-76
2022/03/02 07:20:31;;;;;;;8.80;6.93;;;-0.50;99.90;;;;;;470416;253;27436;-75
2022/03/02 07:22:32;;;;;;;7.62;6.40;;;-0.40;99.90;;;;;;470396;252;27473;-75
2022/03/02 07:24:34;;;;;;;9.32;7.05;;;-0.40;99.90;;;;;;470432;252;27676;-76
2022/03/02 07:26:35;;;;;;;10.65;7.85;;;-0.20;99.90;;;;;;470373;253;27442;-76
2022/03/02 07:28:36;;;;;;;7.72;6.75;;;-0.20;99.90;;;;;;470392;252;27999;-76
2022/03/02 07:30:38;;;;;;;7.78;7.07;;;-0.10;99.90;;;;;;470364;253;27888;-75
2022/03/02 07:32:41;;;;;;;9.40;7.15;;;0.00;99.90;;;;;;470378;252;28011;-76
2022/03/02 07:34:40;;;;;;;10.38;7.75;;;0.00;99.90;;;;;;470301;252;27574;-75
2022/03/02 07:36:41;;;;;;;8.40;7.55;;;0.10;99.90;;;;;;470414;253;27432;-76
2022/03/02 07:38:42;;;;;;;8.77;6.78;;;0.20;99.90;;;;;;470404;252;27549;-76
2022/03/02 07:40:45;;;;;;;9.45;6.75;;;0.20;99.90;;;;;;470383;253;27430;-76
2022/03/02 07:42:45;;;;;;;7.05;6.35;;;0.30;99.90;;;;;;470303;253;27462;-76
2022/03/02 07:44:46;;;;;;;7.72;6.80;;;0.30;99.90;;;;;;470405;252;27481;-75
2022/03/02 07:46:47;;;;;;;9.65;6.80;;;0.40;99.90;;;;;;470393;253;27422;-76
2022/03/02 07:48:49;;;;;;;8.82;6.65;;;0.40;99.90;;;;;;470403;252;27467;-76
2022/03/02 07:50:50;;;;;;;8.40;6.43;;;0.40;99.90;;;;;;470388;252;27430;-76
2022/03/02 07:52:51;;;;;;;7.85;6.65;;;0.40;99.90;;;;;;470373;253;27551;-76
2022/03/02 07:54:52;;;;;;;9.70;6.95;;;0.50;99.90;;;;;;470374;252;28676;-76
2022/03/02 07:56:54;;;;;;;6.40;5.80;;;0.50;99.90;;;;;;470374;253;27981;-76
2022/03/02 07:58:55;;;;;;;8.82;6.90;;;0.60;99.90;;;;;;470376;253;27924;-76
2022/03/02 08:00:56;;;;;;;8.20;6.65;;;0.60;99.90;;;;;;470382;252;27463;-76
2022/03/02 08:02:57;;;;;;;6.87;5.90;;;0.70;99.90;;;;;;470381;253;27473;-76
2022/03/02 08:04:59;;;;;;;7.35;6.65;;;0.90;99.90;;;;;;470387;253;27427;-76
2022/03/02 08:07:00;;;;;;;8.75;6.15;;;0.90;99.90;;;;;;470375;252;27450;-76
2022/03/02 08:09:02;;;;;;;9.35;6.57;;;1.00;99.90;;;;;;470396;252;27474;-77
2022/03/02 08:11:02;;;;;;;6.37;5.30;;;1.10;99.90;;;;;;470381;252;27443;-75
2022/03/02 08:13:04;;;;;;;6.95;6.05;;;1.20;99.90;;;;;;470384;253;27485;-76
2022/03/02 08:15:06;;;;;;;7.05;6.10;;;1.30;99.90;;;;;;470426;252;27913;-76
2022/03/02 08:17:06;;;;;;;7.47;6.03;;;1.30;99.90;;;;;;470298;253;27457;-76
2022/03/02 08:19:07;;;;;;;8.20;6.93;;;1.40;99.90;;;;;;470385;249;27496;-76
2022/03/02 08:21:09;;;;;;;7.57;6.35;;;1.40;99.90;;;;;;470385;253;27510;-76
2022/03/02 08:23:10;;;;;;;8.13;6.40;;;1.40;99.90;;;;;;470400;249;28023;-75
2022/03/02 08:25:11;;;;;;;7.50;6.80;;;1.60;99.90;;;;;;470389;253;28678;-76
2022/03/02 08:27:12;;;;;;;7.05;6.30;;;1.70;99.90;;;;;;470410;252;27908;-76
2022/03/02 08:29:14;;;;;;;8.45;7.00;;;1.70;99.90;;;;;;470434;252;27959;-76
2022/03/02 08:31:15;;;;;;;7.12;6.35;;;1.80;99.90;;;;;;470414;253;27414;-76
2022/03/02 08:33:16;;;;;;;9.75;6.28;;;1.80;99.90;;;;;;470445;252;27506;-76
2022/03/02 08:35:17;;;;;;;7.05;6.35;;;1.80;99.90;;;;;;470398;253;27533;-76
2022/03/02 08:37:19;;;;;;;8.00;6.75;;;1.90;99.90;;;;;;470401;252;27461;-76
2022/03/02 08:39:20;;;;;;;9.20;7.75;;;1.90;99.90;;;;;;470399;251;27477;-76
2022/03/02 08:41:21;;;;;;;7.97;7.18;;;2.00;99.90;;;;;;470414;253;27510;-76
2022/03/02 08:43:22;;;;;;;7.97;7.18;;;2.10;99.90;;;;;;470426;252;27537;-76
2022/03/02 08:45:24;;;;;;;8.45;7.10;;;2.20;99.90;;;;;;470415;252;27518;-76
2022/03/02 08:47:25;;;;;;;8.90;6.90;;;2.30;99.90;;;;;;470419;252;27516;-76
2022/03/02 08:49:26;;;;;;;7.72;6.55;;;2.40;99.90;;;;;;470401;252;27555;-76
2022/03/02 08:51:27;;;;;;;7.90;7.15;;;2.50;99.90;;;;;;470384;253;27897;-76
2022/03/02 08:53:29;;;;;;;8.88;6.80;;;2.50;99.90;;;;;;470403;252;27949;-77
2022/03/02 08:55:30;;;;;;;7.60;6.80;;;2.50;99.90;;;;;;470399;252;27976;-76
2022/03/02 08:57:31;;;;;;;8.05;7.03;;;2.50;99.90;;;;;;470397;253;27459;-76
2022/03/02 08:59:32;;;;;;;6.65;6.05;;;2.60;99.90;;;;;;470413;252;27472;-77
2022/03/02 09:01:34;;;;;;;8.40;5.80;;;2.60;99.90;;;;;;470405;253;27490;-76
2022/03/02 09:03:35;;;;;;;9.60;5.95;;;2.70;99.90;;;;;;470392;253;27550;-77
2022/03/02 09:05:36;;;;;;;6.70;6.00;;;2.80;99.90;;;;;;470387;252;27533;-76
2022/03/02 09:07:37;;;;;;;8.95;6.57;;;2.90;99.90;;;;;;470394;253;27531;-76
2022/03/02 09:09:39;;;;;;;7.32;6.20;;;3.00;99.90;;;;;;470405;252;27454;-77
2022/03/02 09:11:41;;;;;;;9.10;6.87;;;3.00;99.90;;;;;;470419;252;27418;-76
2022/03/02 09:13:41;;;;;;;9.32;7.20;;;3.10;99.90;;;;;;470327;253;27454;-76
2022/03/02 09:15:42;;;;;;;12.65;7.80;;;3.20;99.90;;;;;;470374;248;27430;-76
2022/03/02 09:17:44;;;;;;;8.98;7.78;;;3.40;99.90;;;;;;470376;253;27915;-76
2022/03/02 09:19:45;;;;;;;10.85;8.40;;;3.50;99.90;;;;;;470377;252;28023;-78
2022/03/02 09:21:46;;;;;;;9.15;7.30;;;3.60;99.90;;;;;;470396;253;27940;-76
2022/03/02 09:23:47;;;;;;;9.35;7.60;;;3.60;99.90;;;;;;470442;248;27550;-77
2022/03/02 09:25:49;;;;;;;9.20;6.80;;;3.70;99.90;;;;;;470401;253;27461;-77
2022/03/02 09:27:50;;;;;;;10.00;7.20;;;3.70;99.90;;;;;;470390;253;27484;-76
2022/03/02 09:29:51;;;;;;;8.80;6.90;;;3.70;99.90;;;;;;470404;252;27470;-76
2022/03/02 09:31:52;;;;;;;8.52;6.72;;;3.80;99.90;;;;;;470387;252;27509;-76
2022/03/02 09:33:54;;;;;;;9.95;7.28;;;3.90;99.90;;;;;;470398;253;27463;-76
2022/03/02 09:35:55;;;;;;;10.82;7.87;;;4.10;99.90;;;;;;470430;252;27568;-76
2022/03/02 09:37:56;;;;;;;11.88;7.87;;;4.20;99.90;;;;;;470430;252;28022;-76
2022/03/02 09:39:58;;;;;;;12.37;7.68;;;4.20;99.90;;;;;;470412;252;27944;-76
2022/03/02 09:42:00;;;;;;;9.88;7.62;;;4.30;99.90;;;;;;470416;252;27903;-76
2022/03/02 09:44:00;;;;;;;11.52;8.10;;;4.40;99.90;;;;;;470397;252;27526;-77
2022/03/02 09:46:01;;;;;;;10.18;7.47;;;4.50;99.90;;;;;;470439;253;27461;-77
2022/03/02 09:48:05;;;;;;;12.55;8.20;;;4.50;99.90;;;;;;470449;252;27488;-77
2022/03/02 09:50:04;;;;;;;12.05;7.90;;;4.50;99.90;;;;;;470071;253;27479;-77
2022/03/02 09:52:05;;;;;;;10.43;8.20;;;4.50;99.90;;;;;;470424;252;27428;-75
2022/03/02 09:54:08;;;;;;;11.38;8.43;;;4.50;99.90;;;;;;470429;252;27486;-76
2022/03/02 09:56:08;;;;;;;11.20;8.10;;;4.60;99.90;;;;;;470384;253;28037;-77
2022/03/02 09:58:10;;;;;;;12.80;8.18;;;4.60;99.90;;;;;;470483;252;27906;-77
2022/03/02 10:00:10;;;;;;;10.55;8.00;;;4.60;99.90;;;;;;470393;252;27497;-77
2022/03/02 10:02:11;;;;;;;11.35;7.70;;;4.60;99.90;;;;;;470485;253;27403;-77
2022/03/02 10:04:21;;;;;;;10.70;7.90;;;4.70;99.90;;;;;;470267;253;27459;-76
2022/03/02 10:06:17;;;;;;;9.07;7.03;;;4.70;99.90;;;;;;470090;253;27535;-75
2022/03/02 10:08:18;;;;;;;10.57;7.35;;;4.80;99.90;;;;;;470473;253;27810;-78
2022/03/02 10:10:23;;;;;;;10.77;7.60;;;4.90;99.90;;;;;;470464;252;27424;-76
2022/03/02 10:12:21;;;;;;;12.88;8.00;;;4.90;99.90;;;;;;470199;253;27968;-76
2022/03/02 10:14:22;;;;;;;10.00;7.70;;;5.00;99.90;;;;;;470402;253;27901;-76
2022/03/02 10:16:23;;;;;;;9.60;7.90;;;5.10;99.90;;;;;;470445;252;27493;-77
2022/03/02 10:18:24;;;;;;;11.60;7.78;;;5.10;99.90;;;;;;470411;252;27474;-76
2022/03/02 10:20:26;;;;;;;13.75;7.97;;;5.20;99.90;;;;;;470434;252;27838;-76
2022/03/02 10:22:27;;;;;;;10.95;7.87;;;5.20;99.90;;;;;;470433;252;27461;-76
2022/03/02 10:24:28;;;;;;;10.48;7.50;;;5.30;99.90;;;;;;470460;252;27507;-77
2022/03/02 10:26:29;;;;;;;12.65;8.05;;;5.30;99.90;;;;;;470445;253;28049;-77
2022/03/02 10:28:31;;;;;;;10.05;7.90;;;5.30;99.90;;;;;;470435;252;27953;-76
2022/03/02 10:30:32;;;;;;;9.32;7.53;;;5.30;99.90;;;;;;470422;252;27518;-76
2022/03/02 10:32:35;;;;;;;8.65;7.10;;;5.50;99.90;;;;;;470460;253;27477;-77
2022/03/02 10:34:35;;;;;;;8.45;6.90;;;5.60;99.90;;;;;;470353;252;28674;-73